createdAt,value
2023-05-12T00:02:02.872Z,3.35
2023-05-12T00:04:30.395Z,3.60
2023-05-12T00:06:57.638Z,3.60
2023-05-12T00:09:25.101Z,3.30
2023-05-12T00:11:52.312Z,3.78
2023-05-12T00:14:20.020Z,3.70
2023-05-12T00:16:47.348Z,3.95
2023-05-12T00:19:14.909Z,3.65
2023-05-12T00:21:42.106Z,3.70
2023-05-12T00:24:09.590Z,3.50
2023-05-12T00:26:36.807Z,3.70
2023-05-12T00:29:04.245Z,3.70
2023-05-12T00:31:31.498Z,3.80
2023-05-12T00:33:58.995Z,3.33
2023-05-12T00:36:27.334Z,4.45
2023-05-12T00:38:54.838Z,4.00
2023-05-12T00:41:22.058Z,3.90
2023-05-12T00:43:49.551Z,3.80
2023-05-12T00:46:17.158Z,3.47
2023-05-12T00:48:45.243Z,3.70
2023-05-12T00:51:13.021Z,3.50
2023-05-12T00:53:49.101Z,3.55
2023-05-12T00:56:18.808Z,3.85
2023-05-12T00:58:46.324Z,4.13
2023-05-12T01:01:13.738Z,4.00
2023-05-12T01:03:41.477Z,3.90
2023-05-12T01:06:17.936Z,3.78
2023-05-12T01:08:45.563Z,3.92
2023-05-12T01:11:12.846Z,4.15
2023-05-12T01:13:40.318Z,3.85
2023-05-12T01:16:09.160Z,3.90
2023-05-12T01:18:37.770Z,4.00
2023-05-12T01:21:05.243Z,4.00
2023-05-12T01:23:37.531Z,3.80
2023-05-12T01:26:10.968Z,3.78
2023-05-12T01:28:38.973Z,4.18
2023-05-12T01:31:07.059Z,3.72
2023-05-12T01:33:34.679Z,3.72
2023-05-12T01:36:01.854Z,3.50
2023-05-12T01:38:29.475Z,3.92
2023-05-12T01:40:56.859Z,4.00
2023-05-12T01:43:24.359Z,3.50
2023-05-12T01:45:51.531Z,4.30
2023-05-12T01:48:18.956Z,3.83
2023-05-12T01:50:46.191Z,3.88
2023-05-12T01:53:13.684Z,4.00
2023-05-12T01:55:40.974Z,4.18
2023-05-12T01:58:08.601Z,4.25
2023-05-12T02:00:35.756Z,4.00
2023-05-12T02:03:03.366Z,3.65
2023-05-12T02:05:30.663Z,3.83
2023-05-12T02:07:59.557Z,3.60
2023-05-12T02:10:26.828Z,4.00
2023-05-12T02:12:54.336Z,3.80
2023-05-12T02:15:21.576Z,3.80
2023-05-12T02:17:49.089Z,3.72
2023-05-12T02:20:16.335Z,3.80
2023-05-12T02:22:43.820Z,4.00
2023-05-12T02:25:11.029Z,4.30
2023-05-12T02:27:38.499Z,4.50
2023-05-12T02:30:06.083Z,3.95
2023-05-12T02:32:33.628Z,4.07
2023-05-12T02:35:00.902Z,3.65
2023-05-12T02:37:28.414Z,3.95
2023-05-12T02:39:55.624Z,4.03
2023-05-12T02:42:23.140Z,4.20
2023-05-12T02:44:50.279Z,4.15
2023-05-12T02:47:17.790Z,4.03
2023-05-12T02:49:44.996Z,4.28
2023-05-12T02:52:12.466Z,4.05
2023-05-12T02:54:39.824Z,4.00
2023-05-12T02:57:07.366Z,4.18
2023-05-12T02:59:34.572Z,3.83
2023-05-12T03:02:03.229Z,4.00
2023-05-12T03:04:40.346Z,4.30
2023-05-12T03:07:09.239Z,4.13
2023-05-12T03:09:36.496Z,3.95
2023-05-12T03:12:04.151Z,4.28
2023-05-12T03:14:31.352Z,4.30
2023-05-12T03:16:58.888Z,4.03
2023-05-12T03:19:26.995Z,3.83
2023-05-12T03:21:54.511Z,4.35
2023-05-12T03:24:21.742Z,3.75
2023-05-12T03:26:49.217Z,4.05
2023-05-12T03:29:16.430Z,4.00
2023-05-12T03:31:44.057Z,4.25
2023-05-12T03:34:11.458Z,4.07
2023-05-12T03:36:38.984Z,3.95
2023-05-12T03:39:06.190Z,4.50
2023-05-12T03:41:33.669Z,3.58
2023-05-12T03:44:00.890Z,4.30
2023-05-12T03:46:28.533Z,4.15
2023-05-12T03:48:57.096Z,4.50
2023-05-12T03:51:25.004Z,4.07
2023-05-12T03:53:52.253Z,5.22
2023-05-12T03:56:19.756Z,3.70
2023-05-12T03:58:46.977Z,5.40
2023-05-12T04:01:14.498Z,3.90
2023-05-12T04:03:41.978Z,4.00
2023-05-12T04:06:09.591Z,4.45
2023-05-12T04:08:37.186Z,4.38
2023-05-12T04:11:05.279Z,3.92
2023-05-12T04:13:32.481Z,4.15
2023-05-12T04:16:00.249Z,4.45
2023-05-12T04:18:27.794Z,3.97
2023-05-12T04:20:55.364Z,4.25
2023-05-12T04:23:22.703Z,4.13
2023-05-12T04:25:50.197Z,4.20
2023-05-12T04:28:17.379Z,3.92
2023-05-12T04:30:44.821Z,4.32
2023-05-12T04:33:12.012Z,3.95
2023-05-12T04:35:39.496Z,3.67
2023-05-12T04:38:06.736Z,4.93
2023-05-12T04:40:35.156Z,4.38
2023-05-12T04:43:02.493Z,4.03
2023-05-12T04:45:29.951Z,4.35
2023-05-12T04:47:57.289Z,4.70
2023-05-12T04:50:24.794Z,4.13
2023-05-12T04:52:52.013Z,3.88
2023-05-12T04:55:19.758Z,3.75
2023-05-12T04:57:47.135Z,3.85
2023-05-12T05:00:14.715Z,4.20
2023-05-12T05:02:42.042Z,3.83
2023-05-12T05:05:09.766Z,4.40
2023-05-12T05:07:37.001Z,4.25
2023-05-12T05:10:04.741Z,3.72
2023-05-12T05:12:32.092Z,4.07
2023-05-12T05:14:59.601Z,3.65
2023-05-12T05:17:26.848Z,3.88
2023-05-12T05:19:59.071Z,3.72
2023-05-12T05:22:26.924Z,3.67
2023-05-12T05:24:54.452Z,4.15
2023-05-12T05:27:21.686Z,4.05
2023-05-12T05:29:49.197Z,4.13
2023-05-12T05:32:16.397Z,4.35
2023-05-12T05:34:44.018Z,4.50
2023-05-12T05:37:11.295Z,4.65
2023-05-12T05:39:38.789Z,4.20
2023-05-12T05:42:06.123Z,4.65
2023-05-12T05:44:33.589Z,4.25
2023-05-12T05:47:00.866Z,4.63
2023-05-12T05:49:28.450Z,4.20
2023-05-12T05:51:55.652Z,4.20
2023-05-12T05:54:23.741Z,4.13
2023-05-12T05:56:51.037Z,3.72
2023-05-12T05:59:18.487Z,3.85
2023-05-12T06:01:52.665Z,3.70
2023-05-12T06:04:20.302Z,3.75
2023-05-12T06:06:47.666Z,4.10
2023-05-12T06:09:15.210Z,4.05
2023-05-12T06:11:42.406Z,4.47
2023-05-12T06:14:09.917Z,3.85
2023-05-12T06:16:37.318Z,4.00
2023-05-12T06:19:04.905Z,3.85
2023-05-12T06:21:32.180Z,4.30
2023-05-12T06:23:59.663Z,3.47
2023-05-12T06:26:44.029Z,3.60
2023-05-12T06:29:11.538Z,3.53
2023-05-12T06:31:40.950Z,3.83
2023-05-12T06:34:08.435Z,3.60
2023-05-12T06:36:35.615Z,3.88
2023-05-12T06:39:03.074Z,3.78
2023-05-12T06:41:30.485Z,3.58
2023-05-12T06:43:58.030Z,4.75
2023-05-12T06:46:25.352Z,3.70
2023-05-12T06:48:52.865Z,3.60
2023-05-12T06:51:20.076Z,3.40
2023-05-12T06:53:47.526Z,3.40
2023-05-12T06:56:14.737Z,3.80
2023-05-12T06:58:45.136Z,3.70
2023-05-12T07:01:12.369Z,3.65
2023-05-12T07:03:39.980Z,3.65
2023-05-12T07:06:07.315Z,3.13
2023-05-12T07:08:34.980Z,3.78
2023-05-12T07:11:02.329Z,3.60
2023-05-12T07:13:29.848Z,3.67
2023-05-12T07:15:57.066Z,4.10
2023-05-12T07:18:24.611Z,4.22
2023-05-12T07:20:51.942Z,3.88
2023-05-12T07:23:19.408Z,3.30
2023-05-12T07:25:46.740Z,4.10
2023-05-12T07:28:14.328Z,3.75
2023-05-12T07:30:41.547Z,3.60
2023-05-12T07:33:09.058Z,3.58
2023-05-12T07:35:36.270Z,3.65
2023-05-12T07:38:03.785Z,4.00
2023-05-12T07:40:30.986Z,3.80
2023-05-12T07:42:58.445Z,3.50
2023-05-12T07:45:25.703Z,3.38
2023-05-12T07:47:53.316Z,3.63
2023-05-12T07:50:20.642Z,3.45
2023-05-12T07:52:51.820Z,3.42
2023-05-12T07:55:20.263Z,3.10
2023-05-12T07:57:49.279Z,3.15
2023-05-12T08:00:16.640Z,3.60
2023-05-12T08:02:44.534Z,3.72
2023-05-12T08:05:12.195Z,2.97
2023-05-12T08:07:41.208Z,3.75
2023-05-12T08:10:09.215Z,3.30
2023-05-12T08:12:36.878Z,3.10
2023-05-12T08:15:04.228Z,3.15
2023-05-12T08:17:31.763Z,3.33
2023-05-12T08:19:59.015Z,3.70
2023-05-12T08:22:26.507Z,3.03
2023-05-12T08:24:53.763Z,3.20
2023-05-12T08:27:21.237Z,3.10
2023-05-12T08:29:48.436Z,3.30
2023-05-12T08:32:16.046Z,3.15
2023-05-12T08:34:43.278Z,2.80
2023-05-12T08:37:11.544Z,2.88
2023-05-12T08:39:38.734Z,3.13
2023-05-12T08:42:09.081Z,3.10
2023-05-12T08:44:39.419Z,3.03
2023-05-12T08:47:07.215Z,3.53
2023-05-12T08:49:35.598Z,3.00
2023-05-12T08:52:03.248Z,3.00
2023-05-12T08:54:30.438Z,3.08
2023-05-12T08:59:28.316Z,2.70
2023-05-12T09:01:56.277Z,3.10
2023-05-12T09:04:23.647Z,3.00
2023-05-12T09:06:53.190Z,3.00
2023-05-12T09:09:22.847Z,3.40
2023-05-12T09:11:52.301Z,2.78
2023-05-12T09:14:23.771Z,2.70
2023-05-12T09:16:53.646Z,2.92
2023-05-12T09:19:21.226Z,2.85
2023-05-12T09:21:48.757Z,2.90
2023-05-12T09:24:16.129Z,2.70
2023-05-12T09:26:46.370Z,2.90
2023-05-12T09:29:20.820Z,2.80
2023-05-12T09:31:56.678Z,2.72
2023-05-12T09:34:29.872Z,2.25
2023-05-12T09:37:02.311Z,2.35
2023-05-12T09:39:29.597Z,2.83
2023-05-12T09:41:57.176Z,2.50
2023-05-12T09:44:24.908Z,2.78
2023-05-12T09:46:52.501Z,2.38
2023-05-12T09:49:20.381Z,2.42
2023-05-12T09:51:51.656Z,2.78
2023-05-12T09:54:27.603Z,2.30
2023-05-12T09:56:57.995Z,2.70
2023-05-12T09:59:27.143Z,2.70
2023-05-12T10:01:58.077Z,2.40
2023-05-12T10:04:25.769Z,2.10
2023-05-12T10:06:54.092Z,2.00
2023-05-12T10:09:25.550Z,2.60
2023-05-12T10:11:54.091Z,2.13
2023-05-12T10:14:22.160Z,2.35
2023-05-12T10:16:49.851Z,2.50
2023-05-12T10:19:17.514Z,2.22
2023-05-12T10:21:46.421Z,2.53
2023-05-12T10:24:16.677Z,2.15
2023-05-12T10:26:44.683Z,2.20
2023-05-12T10:29:12.882Z,2.35
2023-05-12T10:31:40.552Z,2.63
2023-05-12T10:34:07.874Z,2.15
2023-05-12T10:36:48.248Z,2.05
2023-05-12T10:39:15.654Z,2.38
2023-05-12T10:41:43.327Z,2.00
2023-05-12T10:44:13.456Z,2.35
2023-05-12T10:46:41.900Z,2.05
2023-05-12T10:49:11.171Z,2.15
2023-05-12T10:51:44.584Z,2.20
2023-05-12T10:54:12.802Z,2.30
2023-05-12T10:56:42.113Z,2.22
2023-05-12T10:59:14.512Z,2.20
2023-05-12T11:01:44.313Z,2.17
2023-05-12T11:04:13.397Z,2.20
2023-05-12T11:06:42.914Z,2.05
2023-05-12T11:09:11.070Z,2.50
2023-05-12T11:11:38.814Z,2.15
2023-05-12T11:14:06.185Z,1.90
2023-05-12T11:16:41.819Z,2.20
2023-05-12T11:19:09.435Z,2.10
2023-05-12T11:21:37.010Z,2.58
2023-05-12T11:24:04.372Z,2.30
2023-05-12T11:26:31.893Z,2.22
2023-05-12T11:28:59.534Z,3.00
2023-05-12T11:31:27.068Z,2.45
2023-05-12T11:34:12.811Z,2.05
2023-05-12T11:36:41.932Z,2.70
2023-05-12T11:39:25.416Z,2.35
2023-05-12T11:42:02.136Z,2.53
2023-05-12T11:44:32.904Z,2.10
2023-05-12T11:47:01.591Z,2.25
2023-05-12T11:49:29.619Z,1.92
2023-05-12T11:52:00.955Z,2.13
2023-05-12T11:54:28.766Z,2.33
2023-05-12T11:56:56.807Z,2.30
2023-05-12T11:59:27.742Z,2.33
2023-05-12T12:01:55.641Z,2.10
2023-05-12T12:04:33.681Z,2.15
2023-05-12T12:07:01.485Z,2.35
2023-05-12T12:09:35.310Z,2.10
2023-05-12T12:12:06.983Z,2.58
2023-05-12T12:14:35.458Z,2.38
2023-05-12T12:17:03.315Z,2.45
2023-05-12T12:19:30.725Z,2.08
2023-05-12T12:21:58.318Z,2.20
2023-05-12T12:24:25.897Z,2.10
2023-05-12T12:26:53.552Z,1.98
2023-05-12T12:29:20.764Z,1.83
2023-05-12T12:31:48.311Z,2.17
2023-05-12T12:34:15.870Z,1.92
2023-05-12T12:36:43.401Z,2.25
2023-05-12T12:39:10.593Z,1.90
2023-05-12T12:41:38.086Z,2.00
2023-05-12T12:44:05.421Z,2.30
2023-05-12T12:46:33.013Z,2.13
2023-05-12T12:49:00.247Z,2.13
2023-05-12T12:51:35.346Z,2.22
2023-05-12T12:54:09.596Z,2.30
2023-05-12T12:56:37.062Z,2.30
2023-05-12T12:59:04.200Z,2.25
2023-05-12T13:01:32.675Z,2.13
2023-05-12T13:04:00.102Z,1.90
2023-05-12T13:06:27.690Z,1.92
2023-05-12T13:08:54.989Z,1.80
2023-05-12T13:11:22.639Z,1.88
2023-05-12T13:13:49.983Z,1.90
2023-05-12T13:16:17.637Z,1.98
2023-05-12T13:18:45.000Z,2.17
2023-05-12T13:21:12.469Z,1.90
2023-05-12T13:23:39.652Z,2.13
2023-05-12T13:26:07.122Z,1.77
2023-05-12T13:28:34.390Z,1.80
2023-05-12T13:31:01.930Z,2.17
2023-05-12T13:33:30.684Z,1.92
2023-05-12T13:35:58.162Z,1.67
2023-05-12T13:38:25.376Z,1.77
2023-05-12T13:40:52.934Z,1.80
2023-05-12T13:43:20.961Z,2.40
2023-05-12T13:45:48.430Z,1.70
2023-05-12T13:48:15.709Z,1.77
2023-05-12T13:50:43.440Z,2.30
2023-05-12T13:53:10.629Z,1.75
2023-05-12T13:55:39.381Z,2.00
2023-05-12T13:58:08.340Z,1.60
2023-05-12T14:00:36.161Z,1.65
2023-05-12T14:03:03.527Z,1.63
2023-05-12T14:05:31.190Z,1.77
2023-05-12T14:07:58.576Z,1.95
2023-05-12T14:10:26.201Z,1.63
2023-05-12T14:12:53.409Z,1.90
2023-05-12T14:15:32.355Z,1.80
2023-05-12T14:18:08.267Z,1.52
2023-05-12T14:20:35.797Z,1.58
2023-05-12T14:23:03.036Z,1.63
2023-05-12T14:25:30.534Z,1.55
2023-05-12T14:27:58.006Z,1.73
2023-05-12T14:30:27.839Z,1.58
2023-05-12T14:32:55.295Z,1.48
2023-05-12T14:35:23.124Z,1.65
2023-05-12T14:37:50.623Z,1.60
2023-05-12T14:40:18.135Z,1.50
2023-05-12T14:42:45.570Z,1.67
2023-05-12T14:45:13.219Z,1.55
2023-05-12T14:47:40.564Z,1.65
2023-05-12T14:50:08.237Z,1.70
2023-05-12T14:52:35.492Z,1.77
2023-05-12T14:55:03.068Z,1.60
2023-05-12T14:57:30.336Z,1.70
2023-05-12T14:59:57.907Z,1.70
2023-05-12T15:02:25.193Z,1.73
2023-05-12T15:04:52.823Z,1.77
2023-05-12T15:07:20.056Z,1.70
2023-05-12T15:09:47.638Z,1.50
2023-05-12T15:12:14.869Z,1.90
2023-05-12T15:14:42.387Z,1.67
2023-05-12T15:17:09.672Z,1.60
2023-05-12T15:19:37.216Z,1.83
2023-05-12T15:22:04.850Z,1.90
2023-05-12T15:24:32.496Z,1.52
2023-05-12T15:27:00.085Z,1.63
2023-05-12T15:29:27.631Z,2.22
2023-05-12T15:31:55.130Z,1.65
2023-05-12T15:34:22.902Z,1.77
2023-05-12T15:36:50.666Z,2.55
2023-05-12T15:39:18.410Z,1.90
2023-05-12T15:41:46.032Z,1.58
2023-05-12T15:44:13.601Z,3.08
2023-05-12T15:46:40.896Z,1.90
2023-05-12T15:49:08.595Z,2.15
2023-05-12T15:51:35.896Z,1.52
2023-05-12T15:54:03.901Z,1.95
2023-05-12T15:56:31.246Z,1.70
2023-05-12T15:58:58.803Z,2.28
2023-05-12T16:01:26.040Z,2.03
2023-05-12T16:03:53.906Z,2.03
2023-05-12T16:06:21.214Z,1.70
2023-05-12T16:08:48.840Z,1.70
2023-05-12T16:11:16.068Z,1.60
2023-05-12T16:13:43.528Z,1.70
2023-05-12T16:16:10.803Z,1.83
2023-05-12T16:18:41.203Z,2.00
2023-05-12T16:21:09.419Z,1.85
2023-05-12T16:23:37.062Z,1.92
2023-05-12T16:26:04.550Z,1.80
2023-05-12T16:28:32.141Z,1.90
2023-05-12T16:30:59.361Z,1.98
2023-05-12T16:33:26.856Z,1.52
2023-05-12T16:35:54.068Z,2.00
2023-05-12T16:38:21.543Z,3.60
2023-05-12T16:40:48.785Z,4.53
2023-05-12T16:43:16.332Z,3.47
2023-05-12T16:45:43.681Z,3.38
2023-05-12T16:48:11.290Z,9.25
2023-05-12T16:50:38.550Z,2.60
2023-05-12T16:53:06.455Z,2.28
2023-05-12T16:55:33.690Z,3.40
2023-05-12T16:58:04.004Z,2.53
2023-05-12T17:00:31.173Z,2.40
2023-05-12T17:02:58.741Z,1.67
2023-05-12T17:05:26.245Z,2.08
2023-05-12T17:07:53.762Z,2.55
2023-05-12T17:10:20.986Z,2.00
2023-05-12T17:12:48.509Z,1.90
2023-05-12T17:15:22.682Z,2.60
2023-05-12T17:17:50.301Z,2.00
2023-05-12T17:20:17.614Z,2.03
2023-05-12T17:22:45.157Z,2.08
2023-05-12T17:25:12.989Z,2.10
2023-05-12T17:31:01.853Z,2.40
2023-05-12T17:33:29.482Z,2.08
2023-05-12T17:36:10.922Z,2.38
2023-05-12T17:38:40.213Z,2.65
2023-05-12T17:41:07.494Z,2.13
2023-05-12T17:43:35.143Z,2.17
2023-05-12T17:46:03.021Z,1.92
2023-05-12T17:48:30.914Z,2.15
2023-05-12T17:50:58.150Z,1.88
2023-05-12T17:53:25.700Z,1.90
2023-05-12T17:55:52.883Z,1.90
2023-05-12T17:58:20.376Z,2.42
2023-05-12T18:00:47.782Z,2.30
2023-05-12T18:03:16.832Z,2.13
2023-05-12T18:05:44.192Z,1.92
2023-05-12T18:08:11.798Z,2.10
2023-05-12T18:10:38.963Z,1.65
2023-05-12T18:13:06.573Z,2.08
2023-05-12T18:15:33.775Z,2.20
2023-05-12T18:18:01.385Z,2.55
2023-05-12T18:20:28.720Z,2.55
2023-05-12T18:22:56.172Z,3.85
2023-05-12T18:25:23.524Z,2.42
2023-05-12T18:27:51.047Z,2.47
2023-05-12T18:30:18.361Z,2.08
2023-05-12T18:32:45.938Z,2.42
2023-05-12T18:35:13.245Z,2.20
2023-05-12T18:37:40.759Z,2.60
2023-05-12T18:40:08.291Z,2.20
2023-05-12T18:42:37.833Z,2.00
2023-05-12T18:45:05.346Z,2.08
2023-05-12T18:47:32.914Z,1.98
2023-05-12T18:50:00.250Z,2.30
2023-05-12T18:52:27.849Z,2.00
2023-05-12T18:54:55.739Z,2.22
2023-05-12T18:57:23.227Z,2.33
2023-05-12T18:59:52.502Z,2.40
2023-05-12T19:02:19.966Z,2.20
2023-05-12T19:04:47.269Z,2.38
2023-05-12T19:07:14.883Z,2.65
2023-05-12T19:09:42.184Z,2.58
2023-05-12T19:12:09.915Z,2.55
2023-05-12T19:14:40.331Z,2.33
2023-05-12T19:17:07.870Z,2.35
2023-05-12T19:19:35.175Z,2.65
2023-05-12T19:22:09.604Z,2.13
2023-05-12T19:24:37.003Z,2.58
2023-05-12T19:27:04.530Z,2.75
2023-05-12T19:29:31.758Z,3.95
2023-05-12T19:31:59.296Z,2.85
2023-05-12T19:34:27.728Z,2.58
2023-05-12T19:36:55.231Z,2.45
2023-05-12T19:39:23.484Z,2.42
2023-05-12T19:41:50.975Z,3.00
2023-05-12T19:44:18.200Z,2.78
2023-05-12T19:46:45.986Z,2.38
2023-05-12T19:49:13.568Z,2.50
2023-05-12T19:51:41.089Z,2.60
2023-05-12T19:54:08.290Z,2.42
2023-05-12T19:56:35.757Z,2.47
2023-05-12T19:59:02.992Z,2.65
2023-05-12T20:01:30.527Z,2.63
2023-05-12T20:03:57.783Z,2.70
2023-05-12T20:06:25.294Z,2.42
2023-05-12T20:08:52.554Z,2.58
2023-05-12T20:11:20.066Z,3.00
2023-05-12T20:13:47.272Z,2.80
2023-05-12T20:16:14.856Z,2.70
2023-05-12T20:18:42.045Z,2.53
2023-05-12T20:21:11.175Z,3.30
2023-05-12T20:23:38.392Z,2.88
2023-05-12T20:26:06.518Z,2.72
2023-05-12T20:28:33.831Z,2.50
2023-05-12T20:31:01.736Z,3.10
2023-05-12T20:33:28.999Z,2.72
2023-05-12T20:35:56.533Z,2.75
2023-05-12T20:38:23.746Z,3.03
2023-05-12T20:40:51.215Z,3.08
2023-05-12T20:43:18.516Z,2.67
2023-05-12T20:45:46.047Z,3.30
2023-05-12T20:48:13.549Z,2.90
2023-05-12T20:50:41.306Z,2.70
2023-05-12T20:53:08.524Z,3.13
2023-05-12T20:55:36.021Z,3.00
2023-05-12T20:58:03.241Z,3.65
2023-05-12T21:00:30.726Z,3.47
2023-05-12T21:03:16.317Z,2.90
2023-05-12T21:05:48.316Z,3.13
2023-05-12T21:08:18.377Z,2.92
2023-05-12T21:10:45.981Z,3.08
2023-05-12T21:13:13.211Z,3.30
2023-05-12T21:15:40.730Z,3.10
2023-05-12T21:18:08.020Z,3.20
2023-05-12T21:20:35.706Z,2.70
2023-05-12T21:23:08.229Z,3.50
2023-05-12T21:25:35.956Z,3.03
2023-05-12T21:28:03.218Z,2.92
2023-05-12T21:30:30.716Z,3.25
2023-05-12T21:32:57.962Z,3.25
2023-05-12T21:35:25.526Z,3.17
2023-05-12T21:37:52.721Z,3.33
2023-05-12T21:40:20.400Z,3.70
2023-05-12T21:42:47.809Z,3.08
2023-05-12T21:45:15.422Z,3.20
2023-05-12T21:47:42.672Z,3.35
2023-05-12T21:50:12.069Z,3.30
2023-05-12T21:52:39.497Z,3.00
2023-05-12T21:55:07.276Z,2.95
2023-05-12T21:57:34.751Z,2.55
2023-05-12T22:00:02.233Z,3.00
2023-05-12T22:02:29.997Z,2.85
2023-05-12T22:04:57.615Z,2.90
2023-05-12T22:07:24.944Z,3.05
2023-05-12T22:09:52.511Z,3.22
2023-05-12T22:12:19.720Z,2.70
2023-05-12T22:14:47.446Z,3.03
2023-05-12T22:17:14.656Z,3.13
2023-05-12T22:19:42.148Z,3.10
2023-05-12T22:22:09.425Z,3.20
2023-05-12T22:24:36.979Z,3.50
2023-05-12T22:27:04.258Z,3.00
2023-05-12T22:29:31.742Z,3.92
2023-05-12T22:31:59.217Z,3.50
2023-05-12T22:34:26.692Z,3.00
2023-05-12T22:36:53.941Z,2.72
2023-05-12T22:39:21.412Z,3.15
2023-05-12T22:41:48.585Z,3.17
2023-05-12T22:44:16.076Z,3.22
2023-05-12T22:46:43.350Z,3.10
2023-05-12T22:49:10.838Z,3.50
2023-05-12T22:51:38.042Z,3.63
2023-05-12T22:54:05.560Z,3.65
2023-05-12T22:56:32.714Z,3.50
2023-05-12T22:59:00.209Z,3.13
2023-05-12T23:01:27.452Z,3.28
2023-05-12T23:03:54.990Z,3.55
2023-05-12T23:06:22.230Z,3.40
2023-05-12T23:08:49.663Z,3.40
2023-05-12T23:11:16.835Z,3.60
2023-05-12T23:13:44.298Z,3.63
2023-05-12T23:16:11.524Z,3.60
2023-05-12T23:18:39.301Z,3.33
2023-05-12T23:21:06.582Z,3.65
2023-05-12T23:23:34.188Z,3.80
2023-05-12T23:26:01.428Z,3.22
2023-05-12T23:28:31.789Z,3.65
2023-05-12T23:30:59.011Z,3.67
2023-05-12T23:33:26.541Z,3.63
2023-05-12T23:35:54.032Z,3.58
2023-05-12T23:38:21.553Z,3.63
2023-05-12T23:40:48.821Z,3.45
2023-05-12T23:43:16.336Z,4.93
2023-05-12T23:45:43.694Z,4.15
2023-05-12T23:48:11.360Z,3.70
2023-05-12T23:50:38.556Z,3.22
2023-05-12T23:53:06.127Z,3.30
2023-05-12T23:55:33.347Z,4.35
2023-05-12T23:58:00.828Z,4.00
